Time;durP1;ratioP1;P1;durP2;ratioP2;P2;SDS_P1;SDS_P2;PMS_P1;PMS_P2;Temp;Humidity;BMP_temperature;BMP_pressure;BME280_temperature;BME280_humidity;BME280_pressure;Samples;Min_cycle;Max_cycle;Signal;HPM_P1;HPM_P2
2021/05/02 00:02:01;;;;;;;11.83;9.73;;;;;;;14.43;82.88;100094.77;1773276;80;22298;-75
2021/05/02 00:04:31;;;;;;;14.97;9.77;;;;;;;14.40;82.93;100092.66;1763469;80;21443;-74
2021/05/02 00:07:02;;;;;;;10.87;9.77;;;;;;;14.38;83.08;100085.42;1758439;80;21349;-75
2021/05/02 00:09:32;;;;;;;11.47;9.73;;;;;;;14.35;83.22;100088.73;1766154;80;21390;-75
2021/05/02 00:12:00;;;;;;;12.07;9.88;;;;;;;14.34;83.30;100093.27;1768036;80;21443;-75
2021/05/02 00:14:28;;;;;;;12.07;9.40;;;;;;;14.33;83.36;100084.18;1759667;79;22078;-75
2021/05/02 00:16:57;;;;;;;9.90;8.80;;;;;;;14.30;83.41;100079.63;1778155;79;21394;-76
2021/05/02 00:19:25;;;;;;;11.07;8.90;;;;;;;14.28;83.50;100075.12;1769834;79;21436;-75
2021/05/02 00:21:53;;;;;;;11.00;8.90;;;;;;;14.24;83.60;100063.34;1763448;80;21354;-75
2021/05/02 00:24:22;;;;;;;10.37;8.77;;;;;;;14.25;83.68;100062.82;1771773;79;21382;-75
2021/05/02 00:26:50;;;;;;;10.50;8.50;;;;;;;14.23;83.70;100053.70;1758950;80;21404;-75
2021/05/02 00:29:18;;;;;;;10.67;8.67;;;;;;;14.25;83.72;100053.42;1758720;79;21386;-75
2021/05/02 00:31:47;;;;;;;10.40;8.47;;;;;;;14.22;83.71;100045.39;1761876;80;21377;-75
2021/05/02 00:34:15;;;;;;;13.50;8.73;;;;;;;14.18;83.74;100043.57;1763287;80;21493;-75
2021/05/02 00:36:42;;;;;;;11.77;9.30;;;;;;;14.18;83.75;100049.77;1757597;80;21891;-75
2021/05/02 00:39:11;;;;;;;9.40;8.40;;;;;;;14.15;83.71;100044.16;1775958;79;21463;-75
2021/05/02 00:41:39;;;;;;;10.53;8.60;;;;;;;14.13;83.74;100039.64;1765141;80;21308;-75
2021/05/02 00:44:23;;;;;;;13.20;8.93;;;;;;;14.13;83.77;100039.09;1779163;80;21757;-75
2021/05/02 00:46:57;;;;;;;10.07;8.60;;;;;;;14.13;83.73;100035.06;1759710;80;21386;-76
2021/05/02 00:49:39;;;;;;;9.63;8.40;;;;;;;14.12;83.69;100032.13;1756745;79;21485;-75
2021/05/02 00:52:49;;;;;;;11.97;8.80;;;;;;;14.10;83.66;100031.62;1765333;80;26665;-75
2021/05/02 00:55:33;;;;;;;9.70;8.23;;;;;;;14.08;83.66;100021.70;1767868;80;21608;-74
2021/05/02 00:58:06;;;;;;;9.87;8.13;;;;;;;14.00;83.70;100019.70;1745826;80;21392;-76
2021/05/02 01:00:37;;;;;;;11.73;8.30;;;;;;;13.92;83.77;100021.17;1758621;80;21435;-75
2021/05/02 01:03:20;;;;;;;11.20;8.27;;;;;;;13.90;83.90;100011.80;1825475;77;22585;-75
2021/05/02 01:05:48;;;;;;;9.50;8.43;;;;;;;13.81;84.07;100015.13;1795983;78;21193;-76
2021/05/02 01:08:16;;;;;;;9.70;8.40;;;;;;;13.78;84.18;100013.58;1825833;78;21386;-76
2021/05/02 01:10:45;;;;;;;11.47;8.73;;;;;;;13.75;84.30;100016.84;1816768;77;21285;-76
2021/05/02 01:13:14;;;;;;;9.00;7.70;;;;;;;13.74;84.41;100009.89;1816200;77;21333;-76
2021/05/02 01:15:47;;;;;;;11.00;8.67;;;;;;;13.73;84.47;100010.98;1804200;78;21729;-75
2021/05/02 01:18:18;;;;;;;9.23;7.87;;;;;;;13.72;84.54;100015.56;1799864;78;21436;-75
2021/05/02 01:20:47;;;;;;;11.27;8.47;;;;;;;13.73;84.63;100009.64;1810792;77;21416;-75
2021/05/02 01:23:27;;;;;;;10.43;8.10;;;;;;;13.75;84.71;100014.16;1808610;78;21345;-76
2021/05/02 01:25:58;;;;;;;10.87;7.83;;;;;;;13.76;84.72;100008.52;1805060;77;21280;-75
2021/05/02 01:28:26;;;;;;;10.25;7.62;;;;;;;13.76;84.77;100007.72;1795580;78;21485;-74
2021/05/02 01:30:56;;;;;;;8.17;6.70;;;;;;;13.75;84.83;100000.73;1810741;77;21156;-75
2021/05/02 01:33:23;;;;;;;9.17;7.30;;;;;;;13.70;84.92;100002.97;1814230;77;21981;-74
2021/05/02 01:35:52;;;;;;;10.30;7.63;;;;;;;13.65;85.04;100001.69;1823349;78;21288;-74
2021/05/02 01:38:19;;;;;;;8.30;6.87;;;;;;;13.66;85.17;100005.98;1807216;78;21359;-75
2021/05/02 01:40:49;;;;;;;8.17;6.80;;;;;;;13.67;85.26;100007.57;1805511;78;21438;-75
2021/05/02 01:43:17;;;;;;;8.00;6.47;;;;;;;13.66;85.31;99999.27;1798047;79;21405;-75
2021/05/02 01:45:45;;;;;;;7.07;5.60;;;;;;;13.64;85.42;100004.13;1802999;79;21378;-75
2021/05/02 01:48:14;;;;;;;8.20;6.30;;;;;;;13.65;85.49;99997.66;1792094;79;21262;-74
2021/05/02 01:50:54;;;;;;;8.53;6.20;;;;;;;13.65;85.52;99992.29;1788346;77;21277;-74
2021/05/02 01:53:21;;;;;;;7.97;5.73;;;;;;;13.67;85.56;99996.84;1795229;77;21723;-75
2021/05/02 01:55:52;;;;;;;8.40;6.10;;;;;;;13.68;85.57;99994.39;1810217;79;21244;-73
2021/05/02 01:58:21;;;;;;;7.37;6.10;;;;;;;13.71;85.57;99994.36;1805420;78;21355;-74
2021/05/02 02:01:14;;;;;;;8.27;5.83;;;;;;;13.73;85.57;99990.31;1787324;79;21393;-76
2021/05/02 02:03:44;;;;;;;7.80;5.30;;;;;;;13.77;85.63;99992.66;1715591;81;21384;-73
2021/05/02 02:06:15;;;;;;;8.37;4.93;;;;;;;13.80;85.62;99988.05;1703599;82;21412;-73
2021/05/02 02:08:44;;;;;;;7.23;5.17;;;;;;;13.83;85.55;99986.13;1729815;82;21326;-73
2021/05/02 02:11:12;;;;;;;7.27;5.13;;;;;;;13.84;85.54;99979.66;1732682;81;21369;-73
2021/05/02 02:13:40;;;;;;;6.77;5.37;;;;;;;13.87;85.45;99981.52;1725128;81;21385;-73
2021/05/02 02:16:08;;;;;;;6.13;4.90;;;;;;;13.87;85.39;99978.28;1718089;82;21337;-74
2021/05/02 02:18:38;;;;;;;5.63;4.67;;;;;;;13.86;85.34;99971.88;1726896;81;21840;-74
2021/05/02 02:21:08;;;;;;;6.47;4.80;;;;;;;13.84;85.23;99973.49;1739655;80;21290;-74
2021/05/02 02:23:41;;;;;;;7.53;4.97;;;;;;;13.81;85.23;99976.20;1738338;80;21623;-74
2021/05/02 02:26:20;;;;;;;6.77;4.70;;;;;;;13.80;85.27;99973.83;1619044;80;9999681;-74
2021/05/02 02:28:48;;;;;;;8.23;5.17;;;;;;;13.79;85.30;99972.25;1734760;82;21227;-74
2021/05/02 02:31:16;;;;;;;6.40;4.20;;;;;;;13.78;85.30;99970.08;1742552;80;21444;-74
2021/05/02 02:33:44;;;;;;;6.63;5.10;;;;;;;13.80;85.26;99973.28;1738928;80;21919;-73
2021/05/02 02:36:12;;;;;;;7.00;4.93;;;;;;;13.80;85.20;99974.62;1736679;82;21430;-72
2021/05/02 02:38:42;;;;;;;6.60;4.80;;;;;;;13.78;85.18;99974.11;1738592;82;21491;-73
2021/05/02 02:41:16;;;;;;;8.67;5.43;;;;;;;13.74;85.16;99967.73;1737543;80;21480;-73
2021/05/02 02:43:54;;;;;;;6.27;5.00;;;;;;;13.67;85.16;99965.18;1729017;81;22744;-74
2021/05/02 02:46:23;;;;;;;6.40;5.00;;;;;;;13.64;85.21;99968.45;1696672;83;21423;-75
2021/05/02 02:48:57;;;;;;;7.13;4.47;;;;;;;13.57;85.24;99962.90;1695991;83;21285;-75
2021/05/02 02:51:26;;;;;;;7.07;5.13;;;;;;;13.54;85.33;99955.97;1671712;83;21488;-74
2021/05/02 02:53:57;;;;;;;6.30;5.03;;;;;;;13.50;85.38;99949.05;1738518;80;21425;-73
2021/05/02 02:56:25;;;;;;;6.00;4.78;;;;;;;13.46;85.58;99952.07;1692233;83;21435;-74
2021/05/02 02:59:03;;;;;;;6.20;4.90;;;;;;;13.47;85.71;99952.87;1732209;82;21703;-73
2021/05/02 03:01:31;;;;;;;7.23;4.83;;;;;;;13.46;85.84;99949.91;1726781;81;21445;-73
2021/05/02 03:04:01;;;;;;;6.97;4.60;;;;;;;13.44;85.99;99955.58;1728233;81;21529;-73
2021/05/02 03:06:29;;;;;;;7.10;4.23;;;;;;;13.47;86.11;99961.70;1687190;82;22003;-73
2021/05/02 03:08:57;;;;;;;5.97;4.50;;;;;;;13.50;86.24;99961.67;1737558;80;21506;-72
2021/05/02 03:11:26;;;;;;;5.83;4.43;;;;;;;13.55;86.32;99962.92;1736572;80;22118;-73
2021/05/02 03:13:54;;;;;;;6.13;4.80;;;;;;;13.60;86.37;99965.00;1739182;80;21522;-72
2021/05/02 03:16:29;;;;;;;7.03;5.00;;;;;;;13.66;86.43;99967.07;1737671;80;21265;-73
2021/05/02 03:19:16;;;;;;;6.77;4.80;;;;;;;13.73;86.45;99968.84;1728111;81;21523;-74
2021/05/02 03:22:07;;;;;;;8.10;4.67;;;;;;;13.78;86.46;99967.95;1698615;82;21406;-75
2021/05/02 03:24:38;;;;;;;6.87;4.43;;;;;;;13.82;86.45;99959.03;1725459;81;21467;-73
2021/05/02 03:27:27;;;;;;;7.08;4.53;;;;;;;13.88;86.46;99961.07;1726594;81;21464;-74
2021/05/02 03:29:56;;;;;;;6.97;4.30;;;;;;;13.92;86.47;99958.59;1698423;82;21220;-74
2021/05/02 03:32:27;;;;;;;7.47;4.90;;;;;;;13.98;86.44;99964.14;1736659;80;21419;-75
2021/05/02 03:34:56;;;;;;;5.30;4.10;;;;;;;14.02;86.38;99961.94;1738700;80;21484;-74
2021/05/02 03:37:25;;;;;;;6.33;4.30;;;;;;;14.07;86.33;99964.52;1733422;80;21198;-74
2021/05/02 03:39:55;;;;;;;5.80;4.33;;;;;;;14.14;86.29;99966.82;1726542;82;21392;-73
2021/05/02 03:42:23;;;;;;;7.10;4.10;;;;;;;14.21;86.19;99964.55;1738576;81;21551;-74
2021/05/02 03:44:52;;;;;;;6.70;3.97;;;;;;;14.29;86.06;99964.43;1694670;82;21361;-74
2021/05/02 03:47:22;;;;;;;5.87;4.10;;;;;;;14.38;85.91;99960.49;1729516;81;21851;-74
2021/05/02 03:49:50;;;;;;;5.87;4.17;;;;;;;14.45;85.72;99962.27;1728076;82;22300;-74
2021/05/02 03:52:19;;;;;;;5.80;4.23;;;;;;;14.51;85.48;99964.59;1726955;80;21497;-74
2021/05/02 03:54:53;;;;;;;7.07;4.30;;;;;;;14.59;85.24;99966.34;1741011;80;21453;-75
2021/05/02 03:57:22;;;;;;;7.10;4.37;;;;;;;14.67;84.99;99975.03;1729234;81;21445;-74
2021/05/02 03:59:50;;;;;;;7.00;4.20;;;;;;;14.75;84.65;99973.02;1731729;81;21931;-74
2021/05/02 04:02:18;;;;;;;6.47;4.07;;;;;;;14.84;84.43;99967.72;1725099;81;21546;-74
2021/05/02 04:04:46;;;;;;;4.77;3.80;;;;;;;14.93;84.12;99967.27;1734396;81;21494;-75
2021/05/02 04:07:14;;;;;;;7.47;3.90;;;;;;;14.99;83.75;99970.89;1735592;81;21535;-74
2021/05/02 04:09:46;;;;;;;6.43;4.30;;;;;;;15.13;82.90;99979.50;1731538;81;21551;-75
2021/05/02 04:12:15;;;;;;;7.35;4.42;;;;;;;15.13;82.90;99979.50;1737434;81;21814;-74
2021/05/02 04:14:44;;;;;;;5.40;3.90;;;;;;;15.30;82.28;99960.03;1734977;81;21277;-74
2021/05/02 04:17:14;;;;;;;7.10;4.20;;;;;;;15.37;82.36;99961.23;1733645;81;22759;-73
2021/05/02 04:19:45;;;;;;;7.13;4.07;;;;;;;15.37;82.36;99961.23;1737490;81;21664;-74
2021/05/02 04:22:16;;;;;;;5.27;4.10;;;;;;;15.41;81.90;99952.79;1733616;82;21609;-74
2021/05/02 04:24:44;;;;;;;5.63;3.60;;;;;;;15.44;81.65;99943.32;1733898;81;21674;-74
2021/05/02 04:27:14;;;;;;;6.47;3.80;;;;;;;15.49;81.44;99937.25;1731092;81;21651;-73
2021/05/02 04:29:45;;;;;;;6.63;3.67;;;;;;;15.51;81.26;99928.88;1730640;81;21879;-75
2021/05/02 04:32:13;;;;;;;5.50;4.03;;;;;;;15.56;80.71;99932.00;1738134;81;21776;-73
2021/05/02 04:34:41;;;;;;;9.37;4.20;;;;;;;15.54;80.79;99930.97;1713478;81;21171;-74
2021/05/02 04:37:09;;;;;;;7.47;4.37;;;;;;;15.57;80.76;99933.05;1741846;80;21809;-74
2021/05/02 04:39:38;;;;;;;6.40;4.10;;;;;;;15.64;80.69;99937.45;1700870;82;21975;-73
2021/05/02 04:42:07;;;;;;;5.87;4.03;;;;;;;15.72;80.54;99938.64;1746027;82;21817;-72
2021/05/02 04:44:35;;;;;;;7.03;4.00;;;;;;;15.82;80.33;99936.25;1736424;80;21975;-73
2021/05/02 04:47:03;;;;;;;6.17;4.30;;;;;;;15.88;80.08;99927.73;1707348;82;21850;-72
2021/05/02 04:49:32;;;;;;;6.10;3.70;;;;;;;15.98;79.72;99922.65;1732990;81;21732;-73
2021/05/02 04:52:00;;;;;;;6.80;4.00;;;;;;;16.06;79.62;99931.34;1730195;81;21908;-73
2021/05/02 04:54:28;;;;;;;5.90;4.20;;;;;;;16.12;79.34;99923.38;1729831;81;21891;-73
2021/05/02 04:56:56;;;;;;;5.27;3.40;;;;;;;16.23;79.07;99931.20;1732600;81;21858;-73
2021/05/02 04:59:25;;;;;;;6.03;3.57;;;;;;;16.30;78.74;99938.28;1692456;84;22227;-74
2021/05/02 05:01:53;;;;;;;5.97;4.20;;;;;;;16.38;78.46;99936.16;1691758;83;22216;-73
2021/05/02 05:04:22;;;;;;;6.63;4.20;;;;;;;16.46;78.19;99934.63;1739255;80;21605;-73
2021/05/02 05:06:49;;;;;;;8.40;4.00;;;;;;;16.56;77.81;99933.79;1732114;81;22322;-73
2021/05/02 05:09:17;;;;;;;5.97;4.20;;;;;;;16.74;76.82;99935.97;1711996;81;21870;-72
2021/05/02 05:11:45;;;;;;;7.03;4.10;;;;;;;16.74;76.82;99922.48;1730743;81;21262;-73
2021/05/02 05:14:13;;;;;;;7.13;3.93;;;;;;;16.83;76.97;99936.04;1721551;81;21619;-73
2021/05/02 05:16:45;;;;;;;9.67;4.93;;;;;;;16.93;76.51;99933.05;1689169;83;21385;-72
2021/05/02 05:19:14;;;;;;;6.23;4.73;;;;;;;17.01;76.17;99929.58;1719213;81;21909;-73
2021/05/02 05:21:45;;;;;;;7.57;4.27;;;;;;;17.11;75.72;99933.32;1735341;81;21237;-72
2021/05/02 05:24:15;;;;;;;10.00;7.53;;;;;;;17.17;75.19;99939.91;1723723;81;21161;-72
2021/05/02 05:26:45;;;;;;;11.43;6.90;;;;;;;17.22;74.83;99934.36;1731829;81;21191;-72
2021/05/02 05:29:13;;;;;;;6.93;4.60;;;;;;;17.26;74.52;99933.41;1736405;81;21144;-72
2021/05/02 05:31:43;;;;;;;6.87;4.67;;;;;;;17.30;74.06;99932.21;1732978;82;21203;-74
2021/05/02 05:34:11;;;;;;;7.67;4.73;;;;;;;17.32;73.77;99928.09;1731470;81;21143;-73
2021/05/02 05:36:40;;;;;;;8.77;5.07;;;;;;;17.35;73.55;99929.37;1736625;81;21068;-74
2021/05/02 05:39:08;;;;;;;5.63;4.60;;;;;;;17.38;73.37;99927.95;1733873;82;21203;-73
2021/05/02 05:41:36;;;;;;;8.17;5.27;;;;;;;17.41;73.23;99928.10;1742177;80;21176;-71
2021/05/02 05:44:07;;;;;;;7.80;4.90;;;;;;;17.46;72.95;99925.23;1693013;82;21171;-77
2021/05/02 05:46:35;;;;;;;8.43;5.20;;;;;;;17.49;72.83;99911.66;1715972;82;21245;-73
2021/05/02 05:49:05;;;;;;;8.70;5.23;;;;;;;17.57;72.63;99918.41;1725495;82;21104;-74
2021/05/02 05:51:33;;;;;;;10.13;5.63;;;;;;;17.66;72.39;99914.89;1702461;82;21633;-74
2021/05/02 05:54:03;;;;;;;7.80;5.30;;;;;;;17.80;72.08;99912.83;1712722;82;22399;-74
2021/05/02 05:56:31;;;;;;;8.80;5.37;;;;;;;17.95;71.78;99905.56;1713753;82;21213;-74
2021/05/02 05:58:59;;;;;;;7.23;4.80;;;;;;;18.10;71.55;99898.05;1710619;82;21148;-73
2021/05/02 06:01:27;;;;;;;5.93;4.67;;;;;;;18.22;70.90;99905.72;1737698;80;21129;-74
2021/05/02 06:03:56;;;;;;;7.47;5.03;;;;;;;18.35;70.32;99906.62;1742231;82;21191;-73
2021/05/02 06:06:25;;;;;;;6.77;4.43;;;;;;;18.48;70.05;99909.66;1741721;80;21275;-75
2021/05/02 06:08:54;;;;;;;8.73;5.20;;;;;;;18.65;69.32;99910.13;1704729;82;21180;-74
2021/05/02 06:11:21;;;;;;;8.57;5.40;;;;;;;18.82;68.89;99910.66;1731969;80;21078;-74
2021/05/02 06:13:49;;;;;;;9.33;5.47;;;;;;;18.99;68.42;99908.39;1730964;82;21274;-72
2021/05/02 06:16:17;;;;;;;7.10;5.73;;;;;;;19.15;67.93;99899.09;1726625;81;21219;-73
2021/05/02 06:18:45;;;;;;;8.27;5.20;;;;;;;19.28;67.29;99893.19;1712502;81;21427;-73
2021/05/02 06:21:13;;;;;;;9.30;6.20;;;;;;;19.39;66.76;99895.17;1724806;81;21116;-74
2021/05/02 06:23:41;;;;;;;8.23;6.20;;;;;;;19.47;66.36;99885.38;1739926;81;21144;-74
2021/05/02 06:26:09;;;;;;;10.17;6.37;;;;;;;19.53;65.83;99885.97;1726261;82;21158;-73
2021/05/02 06:28:37;;;;;;;8.70;5.77;;;;;;;19.51;65.17;99884.93;1732853;81;21180;-74
2021/05/02 06:31:07;;;;;;;9.27;5.63;;;;;;;19.44;64.84;99886.83;1743745;80;21201;-74
2021/05/02 06:33:41;;;;;;;8.73;5.83;;;;;;;19.36;64.72;99885.00;1736980;81;21165;-73
2021/05/02 06:36:09;;;;;;;7.77;5.80;;;;;;;19.30;64.75;99896.37;1740431;81;21599;-74
2021/05/02 06:38:38;;;;;;;10.77;6.00;;;;;;;19.26;64.80;99893.53;1733472;81;21165;-73
2021/05/02 06:41:06;;;;;;;10.00;5.70;;;;;;;19.21;64.68;99893.16;1720790;81;21552;-73
2021/05/02 06:43:34;;;;;;;7.80;5.57;;;;;;;19.16;64.75;99904.20;1693195;82;22133;-74
2021/05/02 06:46:02;;;;;;;9.83;6.17;;;;;;;19.11;64.86;99906.30;1745623;82;21635;-76
2021/05/02 06:48:31;;;;;;;10.73;6.33;;;;;;;19.06;64.88;99909.22;1741093;80;21208;-74
2021/05/02 06:51:00;;;;;;;14.00;6.73;;;;;;;19.02;64.94;99915.03;1744111;80;21158;-76
2021/05/02 06:53:28;;;;;;;12.07;6.90;;;;;;;18.96;65.15;99916.59;1734152;80;21252;-74
2021/05/02 06:55:57;;;;;;;11.57;6.63;;;;;;;18.93;65.28;99924.02;1739193;82;21225;-75
2021/05/02 06:58:25;;;;;;;11.00;6.20;;;;;;;18.91;65.44;99940.34;1742413;80;21159;-75
2021/05/02 07:00:53;;;;;;;9.60;5.93;;;;;;;18.89;65.57;99936.62;1704795;82;21233;-77
2021/05/02 07:03:21;;;;;;;9.03;5.73;;;;;;;18.87;65.57;99932.09;1709637;82;21232;-74
2021/05/02 07:05:50;;;;;;;8.30;6.13;;;;;;;18.88;65.64;99929.61;1716305;82;21055;-77
2021/05/02 07:08:19;;;;;;;10.70;5.97;;;;;;;18.88;65.65;99921.48;1739576;80;21438;-75
2021/05/02 07:10:47;;;;;;;10.37;6.17;;;;;;;18.91;65.64;99933.02;1698378;83;21045;-76
2021/05/02 07:13:16;;;;;;;9.90;5.63;;;;;;;18.96;65.56;99917.16;1725576;81;21857;-76
2021/05/02 07:15:45;;;;;;;13.43;6.63;;;;;;;18.96;65.15;99917.16;1676028;83;21223;-77
2021/05/02 07:18:14;;;;;;;10.10;7.10;;;;;;;18.95;64.91;99915.56;1721332;81;21777;-77
2021/05/02 07:20:45;;;;;;;11.30;6.83;;;;;;;18.95;64.88;99925.03;1696246;83;21436;-82
2021/05/02 07:23:21;;;;;;;14.23;8.50;;;;;;;18.97;64.82;99920.09;1724528;81;21260;-76
2021/05/02 07:25:49;;;;;;;11.23;6.90;;;;;;;18.97;64.59;99908.70;1737981;82;21161;-76
2021/05/02 07:28:17;;;;;;;9.93;6.67;;;;;;;19.00;64.68;99919.44;1708834;82;21164;-78
2021/05/02 07:30:45;;;;;;;9.10;6.13;;;;;;;19.04;64.59;99916.86;1695045;82;21171;-76
2021/05/02 07:33:13;;;;;;;8.17;6.00;;;;;;;19.03;64.43;99924.77;1736772;80;21201;-77
2021/05/02 07:35:41;;;;;;;8.17;6.43;;;;;;;19.04;64.51;99924.98;1737055;80;21170;-77
2021/05/02 07:38:10;;;;;;;8.43;6.30;;;;;;;19.06;64.30;99931.66;1727933;80;21186;-76
2021/05/02 07:40:40;;;;;;;11.27;6.80;;;;;;;19.04;64.16;99925.77;1738898;81;21192;-76
2021/05/02 07:43:08;;;;;;;10.80;7.60;;;;;;;18.98;63.78;99919.75;1723184;81;21177;-76
2021/05/02 07:45:37;;;;;;;9.77;6.93;;;;;;;18.94;64.06;99920.19;1701336;82;21592;-75
2021/05/02 07:48:05;;;;;;;11.00;7.20;;;;;;;18.95;64.13;99920.97;1741001;80;21281;-77
2021/05/02 07:50:36;;;;;;;11.20;7.37;;;;;;;18.94;64.03;99922.89;1735408;81;21088;-76
2021/05/02 07:53:05;;;;;;;11.70;7.60;;;;;;;18.85;63.97;99926.20;1735436;81;21221;-76
2021/05/02 07:55:51;;;;;;;10.80;7.33;;;;;;;18.80;64.13;99926.41;1801983;77;22022;-77
2021/05/02 07:58:19;;;;;;;11.33;8.00;;;;;;;18.68;64.24;99918.95;1758855;80;21120;-77
2021/05/02 08:00:47;;;;;;;14.30;9.53;;;;;;;18.62;64.45;99920.81;1777658;79;21190;-77
2021/05/02 08:03:15;;;;;;;10.23;8.00;;;;;;;18.59;64.58;99916.05;1770233;80;21101;-76
2021/05/02 08:05:44;;;;;;;11.07;8.27;;;;;;;18.52;64.73;99923.33;1760381;79;21084;-78
2021/05/02 08:08:12;;;;;;;11.23;7.73;;;;;;;18.44;65.04;99920.91;1779578;78;21713;-78
2021/05/02 08:10:41;;;;;;;12.73;7.83;;;;;;;18.44;65.28;99914.70;1767705;79;21146;-76
2021/05/02 08:13:09;;;;;;;10.87;8.43;;;;;;;18.45;65.47;99908.96;1783088;79;21485;-77
2021/05/02 08:15:37;;;;;;;13.10;8.97;;;;;;;18.49;65.68;99897.75;1788069;79;21214;-75
2021/05/02 08:18:05;;;;;;;12.93;8.77;;;;;;;18.55;65.66;99887.52;1780748;79;21155;-77
2021/05/02 08:20:33;;;;;;;12.23;8.93;;;;;;;18.58;65.60;99886.08;1780042;78;21134;-76
2021/05/02 08:23:01;;;;;;;14.17;8.93;;;;;;;18.61;65.35;99888.13;1782428;79;21163;-76
2021/05/02 08:25:29;;;;;;;13.33;9.40;;;;;;;18.62;65.25;99893.20;1775482;79;21320;-78
2021/05/02 08:27:57;;;;;;;15.10;9.53;;;;;;;18.62;65.06;99898.61;1789522;78;21060;-76
2021/05/02 08:30:26;;;;;;;14.77;10.07;;;;;;;18.56;65.00;99895.89;1785551;78;21180;-76
2021/05/02 08:32:53;;;;;;;17.83;10.57;;;;;;;18.48;64.95;99893.44;1779967;79;21202;-78
2021/05/02 08:35:21;;;;;;;14.90;10.20;;;;;;;18.43;65.06;99882.83;1781927;79;21128;-77
2021/05/02 08:37:49;;;;;;;19.33;11.50;;;;;;;18.41;65.10;99873.45;1800220;78;21375;-76
2021/05/02 08:40:17;;;;;;;15.23;10.90;;;;;;;18.40;65.13;99863.19;1789810;79;21068;-77
2021/05/02 08:42:45;;;;;;;13.60;10.73;;;;;;;18.41;65.21;99866.69;1800953;79;21528;-77
2021/05/02 08:45:13;;;;;;;11.53;9.90;;;;;;;18.42;65.19;99860.15;1778117;79;21191;-77
2021/05/02 08:47:40;;;;;;;15.70;10.50;;;;;;;18.42;65.19;99862.29;1802575;79;21172;-77
2021/05/02 08:50:10;;;;;;;15.20;9.80;;;;;;;18.45;65.19;99858.94;1779600;78;22124;-74
2021/05/02 08:52:39;;;;;;;17.67;11.70;;;;;;;18.46;64.97;99852.43;1794308;78;21668;-76
2021/05/02 08:55:07;;;;;;;13.80;10.40;;;;;;;18.46;64.86;99842.17;1796191;79;21596;-76
2021/05/02 08:57:36;;;;;;;17.37;11.70;;;;;;;18.43;64.80;99828.75;1782268;79;21199;-76
2021/05/02 09:00:07;;;;;;;17.60;11.40;;;;;;;18.44;65.14;99823.56;1796677;78;21666;-77
2021/05/02 09:02:35;;;;;;;26.10;20.52;;;;;;;18.39;65.49;99825.09;1795300;79;21261;-77
2021/05/02 09:05:06;;;;;;;26.73;20.70;;;;;;;18.39;65.86;99823.73;1791429;78;21193;-76
2021/05/02 09:07:46;;;;;;;34.57;26.93;;;;;;;18.39;65.97;99831.06;1793449;79;21140;-78
2021/05/02 09:10:18;;;;;;;20.23;17.12;;;;;;;18.36;66.05;99836.59;1776309;78;21896;-77
2021/05/02 09:12:59;;;;;;;20.50;15.53;;;;;;;18.34;66.25;99825.30;1792710;79;21232;-75
2021/05/02 09:15:31;;;;;;;18.97;13.67;;;;;;;18.34;66.42;99826.64;1789055;79;22111;-77
2021/05/02 09:20:48;;;;;;;18.30;12.13;;;;;;;18.45;66.73;99829.19;1791510;79;22847;-80
2021/05/02 09:23:18;;;;;;;23.00;14.37;;;;;;;18.47;66.69;99826.17;1792639;78;21096;-82
2021/05/02 09:25:53;;;;;;;19.00;11.90;;;;;;;18.53;66.53;99822.73;1790944;79;22179;-80
2021/05/02 09:28:53;;;;;;;13.73;11.00;;;;;;;18.57;66.44;99820.95;1796151;79;21002;-81
2021/05/02 09:31:28;;;;;;;16.87;11.85;;;;;;;18.62;66.40;99822.88;1781796;80;21108;-80
2021/05/02 09:34:14;;;;;;;15.83;12.27;;;;;;;18.65;66.07;99821.44;1778361;78;21057;-80
2021/05/02 09:37:07;;;;;;;18.40;12.37;;;;;;;18.66;66.03;99820.34;1780804;80;21525;-80
2021/05/02 09:39:56;;;;;;;17.03;11.43;;;;;;;18.68;66.02;99822.92;1802063;79;21264;-78
2021/05/02 09:42:31;;;;;;;18.83;12.60;;;;;;;18.65;65.92;99819.52;1783321;78;21190;-79
2021/05/02 09:44:57;;;;;;;17.00;11.27;;;;;;;18.66;65.89;99815.71;1785658;78;21196;-79
2021/05/02 09:47:30;;;;;;;16.17;13.07;;;;;;;18.67;65.84;99821.91;1743953;81;21152;-81
2021/05/02 09:50:17;;;;;;;15.17;11.70;;;;;;;18.68;65.73;99819.43;1755586;81;21212;-81
2021/05/02 09:53:02;;;;;;;20.17;13.10;;;;;;;18.62;65.64;99821.53;1750972;80;21195;-81
2021/05/02 09:55:45;;;;;;;15.07;12.00;;;;;;;18.55;65.86;99823.17;1753807;81;21117;-80
2021/05/02 09:58:20;;;;;;;17.70;12.73;;;;;;;18.53;66.03;99833.55;1743609;81;21097;-80
2021/05/02 10:00:55;;;;;;;17.13;12.10;;;;;;;18.49;66.41;99836.09;1739704;80;21172;-81
2021/05/02 10:03:25;;;;;;;16.33;12.50;;;;;;;18.46;66.94;99837.55;1744472;80;21591;-80
2021/05/02 10:06:03;;;;;;;16.05;13.15;;;;;;;18.45;67.45;99849.47;1730094;80;21441;-80
2021/05/02 10:08:43;;;;;;;20.57;14.07;;;;;;;18.45;67.91;99854.88;1760276;81;21228;-79
2021/05/02 10:11:11;;;;;;;18.83;13.53;;;;;;;18.41;68.21;99862.06;1753280;81;21498;-80
2021/05/02 10:13:39;;;;;;;19.00;13.73;;;;;;;18.40;68.44;99867.25;1739253;80;21668;-79
2021/05/02 10:16:12;;;;;;;16.97;12.67;;;;;;;18.39;68.73;99860.23;1736390;81;21182;-80
2021/05/02 10:18:40;;;;;;;17.00;12.57;;;;;;;18.35;69.06;99860.66;1742471;81;21228;-78
2021/05/02 10:21:10;;;;;;;14.53;12.58;;;;;;;18.27;69.35;99869.62;1776660;80;21714;-80
2021/05/02 10:23:38;;;;;;;20.23;12.00;;;;;;;18.16;69.71;99861.05;1743253;80;21563;-78
2021/05/02 10:26:06;;;;;;;16.90;11.27;;;;;;;18.09;70.20;99859.42;1751387;81;21163;-77
2021/05/02 10:28:35;;;;;;;15.47;11.57;;;;;;;18.01;70.51;99858.34;1738166;82;21802;-78
2021/05/02 10:31:06;;;;;;;15.33;11.97;;;;;;;17.93;71.04;99856.48;1746205;81;21225;-77
2021/05/02 10:33:41;;;;;;;13.83;11.20;;;;;;;17.88;71.44;99849.89;1747769;80;21156;-77
2021/05/02 10:36:24;;;;;;;15.50;12.33;;;;;;;17.90;71.82;99859.83;1734494;81;21184;-78
2021/05/02 10:39:04;;;;;;;13.58;11.12;;;;;;;17.91;72.05;99861.97;1731289;81;21228;-78
2021/05/02 10:41:38;;;;;;;15.83;12.55;;;;;;;17.94;72.25;99848.60;1758531;79;21260;-78
2021/05/02 10:44:16;;;;;;;16.47;11.60;;;;;;;18.00;72.24;99837.86;1760706;80;21209;-78
2021/05/02 10:46:50;;;;;;;17.63;11.97;;;;;;;18.09;72.12;99843.77;1734398;81;21216;-79
2021/05/02 10:49:24;;;;;;;15.20;11.77;;;;;;;18.17;72.04;99842.39;1737711;81;21211;-78
2021/05/02 10:51:53;;;;;;;16.03;10.87;;;;;;;18.31;72.24;99835.97;1736633;81;21628;-77
2021/05/02 10:54:24;;;;;;;14.90;11.37;;;;;;;18.44;72.08;99838.43;1743064;81;21620;-79
2021/05/02 10:56:56;;;;;;;14.43;11.37;;;;;;;18.56;71.84;99835.03;1762547;80;21451;-78
2021/05/02 11:00:02;;;;;;;14.83;11.53;;;;;;;18.74;71.60;99825.70;1821458;77;23428;-78
2021/05/02 11:02:48;;;;;;;14.37;11.40;;;;;;;18.79;71.17;99824.73;1797610;77;21159;-78
2021/05/02 11:05:22;;;;;;;14.87;11.60;;;;;;;18.93;70.97;99827.16;1788871;79;22121;-80
2021/05/02 11:07:52;;;;;;;16.37;12.30;;;;;;;19.05;70.65;99823.17;1795772;79;21726;-78
2021/05/02 11:10:22;;;;;;;15.10;11.68;;;;;;;19.13;70.21;99821.51;1783290;79;21132;-80
2021/05/02 11:12:51;;;;;;;13.70;11.17;;;;;;;19.21;69.97;99817.91;1805741;79;21127;-78
2021/05/02 11:15:31;;;;;;;14.73;10.50;;;;;;;19.26;69.74;99814.23;1795247;79;21184;-78
2021/05/02 11:18:01;;;;;;;16.53;11.90;;;;;;;19.27;69.43;99813.09;1794178;79;21179;-79
2021/05/02 11:20:51;;;;;;;16.23;11.90;;;;;;;19.24;69.14;99807.77;1797419;79;21191;-80
2021/05/02 11:23:40;;;;;;;15.03;10.20;;;;;;;19.24;69.00;99805.63;1798997;79;21642;-77
2021/05/02 11:26:12;;;;;;;15.15;10.38;;;;;;;19.18;68.94;99799.09;1763279;77;21168;-79
2021/05/02 11:28:46;;;;;;;13.57;9.43;;;;;;;19.23;68.99;99785.11;1796906;79;21198;-80
2021/05/02 11:31:13;;;;;;;14.70;9.93;;;;;;;19.28;69.27;99775.41;1792973;79;21201;-76
2021/05/02 11:33:41;;;;;;;17.33;11.37;;;;;;;19.25;69.64;99770.13;1791971;78;21167;-77
2021/05/02 11:36:10;;;;;;;15.57;11.33;;;;;;;19.17;69.97;99770.98;1791657;79;21132;-77
2021/05/02 11:38:40;;;;;;;15.87;10.13;;;;;;;19.08;70.66;99779.74;1792437;79;21587;-76
2021/05/02 11:41:09;;;;;;;14.03;10.10;;;;;;;19.01;70.98;99773.52;1790782;79;21175;-77
2021/05/02 11:43:39;;;;;;;15.65;9.23;;;;;;;19.01;71.25;99771.38;1794365;79;21180;-77
2021/05/02 11:46:16;;;;;;;15.07;8.63;;;;;;;18.98;71.25;99766.84;1798044;78;21786;-76
2021/05/02 11:48:46;;;;;;;12.13;8.53;;;;;;;18.83;71.03;99765.34;1794355;79;21239;-76